createdAt,value
2022-11-06T00:04:07.012Z,16.30
2022-11-06T00:09:13.650Z,16.37
2022-11-06T00:14:17.279Z,16.24
2022-11-06T00:19:19.538Z,16.22
2022-11-06T00:24:21.737Z,16.22
2022-11-06T00:29:24.036Z,16.07
2022-11-06T00:34:26.752Z,16.15
2022-11-06T00:39:29.031Z,16.13
2022-11-06T00:44:31.492Z,15.91
2022-11-06T00:49:33.663Z,15.83
2022-11-06T00:54:35.852Z,15.99
2022-11-06T00:59:38.210Z,16.04
2022-11-06T01:04:40.550Z,15.93
2022-11-06T01:09:42.969Z,16.11
2022-11-06T01:14:45.211Z,16.10
2022-11-06T01:19:48.625Z,16.16
2022-11-06T01:24:51.748Z,16.05
2022-11-06T01:29:55.747Z,16.04
2022-11-06T01:34:58.094Z,15.82
2022-11-06T01:40:00.716Z,16.08
2022-11-06T01:45:15.827Z,16.12
2022-11-06T01:50:19.258Z,16.14
2022-11-06T01:55:30.887Z,16.15
2022-11-06T02:00:33.629Z,15.98
2022-11-06T02:05:37.117Z,16.02
2022-11-06T02:10:40.160Z,15.83
2022-11-06T02:15:59.292Z,16.05
2022-11-06T02:21:32.794Z,15.76
2022-11-06T02:26:51.676Z,15.88
2022-11-06T02:32:00.733Z,15.95
2022-11-06T02:37:09.885Z,15.94
2022-11-06T02:42:15.880Z,15.85
2022-11-06T02:47:20.960Z,15.93
2022-11-06T02:52:31.041Z,15.94
2022-11-06T02:57:38.009Z,15.81
2022-11-06T03:02:45.309Z,15.87
2022-11-06T03:07:55.813Z,15.82
2022-11-06T03:13:09.312Z,15.75
2022-11-06T03:18:36.555Z,15.53
2022-11-06T03:23:49.056Z,15.68
2022-11-06T03:29:30.868Z,15.64
2022-11-06T03:34:43.478Z,15.69
2022-11-06T03:39:53.847Z,15.60
2022-11-06T03:45:03.596Z,15.42
2022-11-06T03:50:06.229Z,15.38
2022-11-06T03:55:17.617Z,15.48
2022-11-06T04:00:21.144Z,15.29
2022-11-06T04:05:25.246Z,15.29
2022-11-06T04:10:47.221Z,15.29
2022-11-06T04:15:55.191Z,15.27
2022-11-06T04:21:27.034Z,15.26
2022-11-06T04:26:38.342Z,15.23
2022-11-06T04:31:50.243Z,15.27
2022-11-06T04:37:09.348Z,15.07
2022-11-06T04:42:19.789Z,15.21
2022-11-06T04:47:24.821Z,15.26
2022-11-06T04:52:29.179Z,15.15
2022-11-06T04:57:31.600Z,15.03
2022-11-06T05:02:34.097Z,15.13
2022-11-06T05:07:36.600Z,15.12
2022-11-06T05:12:38.828Z,15.10
2022-11-06T05:17:40.990Z,15.07
2022-11-06T05:22:59.168Z,15.05
2022-11-06T05:28:03.066Z,15.04
2022-11-06T05:33:05.284Z,14.99
2022-11-06T05:38:07.629Z,14.63
2022-11-06T05:43:09.847Z,15.00
2022-11-06T05:48:12.255Z,14.89
2022-11-06T05:53:14.881Z,14.75
2022-11-06T05:58:17.261Z,14.76
2022-11-06T06:03:19.503Z,14.87
2022-11-06T06:08:21.746Z,14.98
2022-11-06T06:13:24.064Z,14.94
2022-11-06T06:18:26.232Z,14.92
2022-11-06T06:23:28.396Z,14.99
2022-11-06T06:28:30.772Z,15.05
2022-11-06T06:33:33.470Z,15.29
2022-11-06T06:38:35.799Z,15.35
2022-11-06T06:43:38.069Z,15.36
2022-11-06T06:48:40.275Z,15.35
2022-11-06T06:53:42.528Z,15.45
2022-11-06T06:58:44.988Z,15.22
2022-11-06T07:03:47.284Z,15.48
2022-11-06T07:08:49.606Z,15.41
2022-11-06T07:13:51.809Z,15.53
2022-11-06T07:18:54.179Z,15.57
2022-11-06T07:23:56.421Z,15.78
2022-11-06T07:28:58.596Z,15.59
2022-11-06T07:34:00.844Z,15.70
2022-11-06T07:39:03.058Z,15.67
2022-11-06T07:44:05.446Z,15.68
2022-11-06T07:49:07.796Z,15.82
2022-11-06T07:54:12.258Z,16.00
2022-11-06T07:59:14.453Z,15.99
2022-11-06T08:04:16.633Z,16.09
2022-11-06T08:09:18.853Z,16.04
2022-11-06T08:14:21.191Z,16.17
2022-11-06T08:19:23.364Z,16.22
2022-11-06T08:24:25.563Z,16.36
2022-11-06T08:29:27.741Z,16.47
2022-11-06T08:34:29.961Z,16.49
2022-11-06T08:39:32.251Z,16.60
2022-11-06T08:44:34.735Z,16.84
2022-11-06T08:49:36.883Z,16.88
2022-11-06T08:54:39.215Z,16.99
2022-11-06T08:59:41.463Z,17.04
2022-11-06T09:04:43.693Z,17.25
2022-11-06T09:09:45.926Z,17.35
2022-11-06T09:14:48.146Z,17.43
2022-11-06T09:19:54.507Z,17.68
2022-11-06T09:25:03.769Z,17.60
2022-11-06T09:30:07.135Z,17.78
2022-11-06T09:35:09.785Z,17.78
2022-11-06T09:40:36.934Z,17.80
2022-11-06T09:45:41.513Z,17.73
2022-11-06T09:51:01.665Z,17.52
2022-11-06T09:56:06.924Z,17.67
2022-11-06T10:01:27.230Z,17.38
2022-11-06T10:06:30.700Z,17.34
2022-11-06T10:11:59.493Z,17.35
2022-11-06T10:17:18.888Z,17.30
2022-11-06T10:22:40.407Z,17.11
2022-11-06T10:27:59.893Z,17.16
2022-11-06T10:33:22.996Z,17.19
2022-11-06T10:38:41.527Z,17.10
2022-11-06T10:44:00.980Z,17.27
2022-11-06T10:49:12.194Z,17.25
2022-11-06T10:54:39.317Z,17.55
2022-11-06T10:59:41.907Z,17.59
2022-11-06T11:04:44.486Z,17.48
2022-11-06T11:09:49.945Z,17.52
2022-11-06T11:15:26.380Z,17.53
2022-11-06T11:20:34.420Z,17.54
2022-11-06T11:25:36.943Z,17.51
2022-11-06T11:30:39.275Z,17.56
2022-11-06T11:35:47.793Z,17.47
2022-11-06T11:40:51.979Z,17.48
2022-11-06T11:46:18.375Z,17.55
2022-11-06T11:51:31.363Z,17.49
2022-11-06T11:57:04.134Z,17.53
2022-11-06T12:02:03.109Z,17.53
2022-11-06T12:07:22.877Z,17.28
2022-11-06T12:12:31.570Z,17.42
2022-11-06T12:17:37.828Z,17.39
2022-11-06T12:22:44.819Z,17.38
2022-11-06T12:27:58.329Z,17.47
2022-11-06T12:33:11.898Z,17.62
2022-11-06T12:38:46.785Z,17.85
2022-11-06T12:43:50.979Z,18.00
2022-11-06T12:49:20.774Z,18.24
2022-11-06T12:54:34.854Z,18.27
2022-11-06T13:00:11.346Z,18.26
2022-11-06T13:05:18.754Z,18.40
2022-11-06T13:10:39.636Z,18.41
2022-11-06T13:16:04.042Z,18.21
2022-11-06T13:21:21.891Z,18.27
2022-11-06T13:26:54.368Z,18.36
2022-11-06T13:32:01.960Z,18.36
2022-11-06T13:37:13.155Z,18.18
2022-11-06T13:42:27.931Z,18.04
2022-11-06T13:48:09.105Z,17.98
2022-11-06T13:53:38.097Z,17.89
2022-11-06T13:58:40.402Z,17.79
2022-11-06T14:04:16.301Z,17.73
2022-11-06T14:09:23.122Z,17.68
2022-11-06T14:14:30.038Z,17.50
2022-11-06T14:19:32.601Z,17.43
2022-11-06T14:24:44.684Z,17.36
2022-11-06T14:30:07.388Z,17.22
2022-11-06T14:35:31.578Z,17.15
2022-11-06T14:40:33.991Z,17.12
2022-11-06T14:45:36.448Z,16.98
2022-11-06T14:50:42.172Z,16.92
2022-11-06T14:55:56.415Z,16.87
2022-11-06T15:01:10.791Z,16.94
2022-11-06T15:06:19.145Z,16.90
2022-11-06T15:11:30.503Z,16.88
2022-11-06T15:16:45.921Z,16.66
2022-11-06T15:21:55.621Z,16.84
2022-11-06T15:27:05.361Z,16.84
2022-11-06T15:32:12.842Z,16.79
2022-11-06T15:37:24.059Z,16.82
2022-11-06T15:42:32.359Z,16.81
2022-11-06T15:47:37.364Z,16.82
2022-11-06T15:52:40.588Z,16.75
2022-11-06T15:57:43.045Z,16.52
2022-11-06T16:03:11.824Z,16.60
2022-11-06T16:08:16.611Z,16.53
2022-11-06T16:13:22.476Z,16.45
2022-11-06T16:18:33.797Z,16.44
2022-11-06T16:23:49.867Z,16.37
2022-11-06T16:28:55.241Z,16.14
2022-11-06T16:34:02.970Z,16.20
2022-11-06T16:39:48.120Z,16.10
2022-11-06T16:45:02.230Z,16.01
2022-11-06T16:50:24.729Z,16.19
2022-11-06T16:55:33.512Z,16.16
2022-11-06T17:00:35.929Z,15.83
2022-11-06T17:05:39.371Z,16.11
2022-11-06T17:10:43.317Z,15.91
2022-11-06T17:15:57.950Z,15.87
2022-11-06T17:21:02.970Z,15.99
2022-11-06T17:26:41.385Z,15.95
2022-11-06T17:31:43.781Z,15.86
2022-11-06T17:36:46.014Z,15.99
2022-11-06T17:41:48.463Z,15.89
2022-11-06T17:46:51.379Z,15.81
2022-11-06T17:51:58.625Z,16.08
2022-11-06T17:57:03.586Z,16.04
2022-11-06T18:02:07.694Z,16.03
2022-11-06T18:07:10.040Z,16.03
2022-11-06T18:12:15.667Z,16.04
2022-11-06T18:17:18.293Z,15.95
2022-11-06T18:22:20.516Z,15.96
2022-11-06T18:27:22.728Z,15.80
2022-11-06T18:32:25.110Z,15.77
2022-11-06T18:37:27.590Z,15.75
2022-11-06T18:42:29.805Z,15.62
2022-11-06T18:47:32.076Z,15.58
2022-11-06T18:52:56.501Z,15.74
2022-11-06T18:57:57.048Z,15.76
2022-11-06T19:02:59.531Z,15.61
2022-11-06T19:08:03.518Z,15.79
2022-11-06T19:13:05.828Z,15.79
2022-11-06T19:18:08.050Z,15.64
2022-11-06T19:23:14.886Z,15.72
2022-11-06T19:28:18.391Z,15.66
2022-11-06T19:33:21.513Z,15.55
2022-11-06T19:38:23.894Z,15.47
2022-11-06T19:43:26.321Z,15.50
2022-11-06T19:48:28.615Z,15.56
2022-11-06T19:53:30.842Z,15.74
2022-11-06T19:58:33.111Z,15.58
2022-11-06T20:03:36.545Z,15.61
2022-11-06T20:08:39.325Z,15.50
2022-11-06T20:13:42.844Z,15.56
2022-11-06T20:18:50.950Z,15.58
2022-11-06T20:23:53.312Z,15.49
2022-11-06T20:28:55.546Z,15.51
2022-11-06T20:34:00.317Z,15.66
2022-11-06T20:39:03.880Z,15.60
2022-11-06T20:44:06.370Z,15.60
2022-11-06T20:49:08.999Z,15.33
2022-11-06T20:54:11.323Z,15.59
2022-11-06T20:59:15.138Z,15.47
2022-11-06T21:04:17.363Z,15.46
2022-11-06T21:09:19.742Z,15.19
2022-11-06T21:14:22.428Z,15.14
2022-11-06T21:19:25.174Z,15.28
2022-11-06T21:24:27.445Z,15.20
2022-11-06T21:29:29.761Z,15.05
2022-11-06T21:34:32.240Z,15.05
2022-11-06T21:39:36.533Z,15.30
2022-11-06T21:44:39.084Z,15.09
2022-11-06T21:49:41.352Z,15.36
2022-11-06T21:55:09.597Z,15.18
2022-11-06T22:00:14.412Z,15.25
2022-11-06T22:05:17.485Z,15.22
2022-11-06T22:10:19.761Z,15.07
2022-11-06T22:15:22.133Z,14.89
2022-11-06T22:20:24.355Z,14.87
2022-11-06T22:25:26.752Z,15.26
2022-11-06T22:30:28.978Z,15.26
2022-11-06T22:35:31.229Z,14.82
2022-11-06T22:40:33.471Z,14.91
2022-11-06T22:45:35.687Z,15.16
2022-11-06T22:50:38.087Z,14.76
2022-11-06T22:55:40.474Z,14.63
2022-11-06T23:00:42.702Z,14.66
2022-11-06T23:05:45.199Z,14.94
2022-11-06T23:10:47.435Z,14.78
2022-11-06T23:15:50.683Z,14.96
2022-11-06T23:20:52.854Z,14.68
2022-11-06T23:25:55.419Z,14.95
2022-11-06T23:30:57.737Z,14.74
2022-11-06T23:35:59.937Z,14.76
2022-11-06T23:41:28.804Z,14.81
2022-11-06T23:46:33.352Z,14.90
2022-11-06T23:51:35.663Z,14.74
2022-11-06T23:56:38.329Z,14.77
